createdAt,value
2022-07-29T00:00:13.475Z,58.25
2022-07-29T00:02:45.622Z,58.15
2022-07-29T00:05:17.984Z,58.24
2022-07-29T00:07:49.967Z,58.61
2022-07-29T00:10:22.228Z,58.60
2022-07-29T00:12:54.253Z,58.39
2022-07-29T00:15:27.560Z,58.77
2022-07-29T00:17:59.584Z,58.53
2022-07-29T00:20:31.591Z,59.15
2022-07-29T00:23:03.615Z,58.84
2022-07-29T00:25:35.654Z,58.89
2022-07-29T00:28:07.636Z,58.73
2022-07-29T00:30:39.665Z,58.97
2022-07-29T00:33:11.641Z,59.17
2022-07-29T00:35:46.173Z,59.09
2022-07-29T00:38:21.194Z,58.86
2022-07-29T00:40:53.566Z,58.94
2022-07-29T00:43:25.694Z,58.08
2022-07-29T00:45:57.659Z,58.35
2022-07-29T00:48:29.683Z,58.60
2022-07-29T00:51:05.011Z,58.36
2022-07-29T00:53:37.883Z,58.87
2022-07-29T00:56:09.848Z,58.67
2022-07-29T00:58:41.985Z,58.39
2022-07-29T01:01:14.095Z,58.44
2022-07-29T01:03:46.133Z,58.75
2022-07-29T01:06:19.554Z,58.31
2022-07-29T01:08:52.437Z,58.34
2022-07-29T01:11:24.879Z,58.10
2022-07-29T01:13:57.519Z,57.64
2022-07-29T01:16:38.069Z,58.20
2022-07-29T01:19:58.438Z,58.47
2022-07-29T01:23:00.889Z,58.32
2022-07-29T01:26:12.078Z,58.14
2022-07-29T01:29:07.467Z,58.43
2022-07-29T01:32:22.558Z,58.25
2022-07-29T01:35:21.026Z,58.09
2022-07-29T01:38:08.285Z,57.82
2022-07-29T01:40:50.843Z,58.48
2022-07-29T01:43:31.611Z,58.48
2022-07-29T01:46:08.393Z,58.65
2022-07-29T01:48:47.422Z,58.49
2022-07-29T01:51:28.304Z,58.75
2022-07-29T01:54:11.817Z,58.38
2022-07-29T01:56:46.558Z,58.29
2022-07-29T01:59:20.166Z,58.26
2022-07-29T02:01:56.424Z,58.01
2022-07-29T02:04:30.688Z,58.10
2022-07-29T02:07:07.345Z,58.49
2022-07-29T02:09:40.734Z,58.43
2022-07-29T02:12:14.513Z,58.58
2022-07-29T02:14:51.877Z,58.45
2022-07-29T02:17:45.106Z,58.16
2022-07-29T02:20:18.001Z,58.17
2022-07-29T02:22:53.384Z,58.25
2022-07-29T02:25:37.309Z,58.27
2022-07-29T02:28:10.923Z,58.50
2022-07-29T02:30:45.145Z,58.15
2022-07-29T02:33:19.734Z,58.33
2022-07-29T02:35:52.221Z,58.18
2022-07-29T02:38:45.734Z,57.95
2022-07-29T02:41:56.877Z,57.83
2022-07-29T02:44:32.723Z,57.61
2022-07-29T02:47:41.348Z,58.09
2022-07-29T02:50:23.715Z,57.91
2022-07-29T02:53:02.451Z,57.72
2022-07-29T02:55:49.264Z,57.89
2022-07-29T02:59:09.273Z,58.28
2022-07-29T03:01:44.817Z,57.74
2022-07-29T03:04:20.630Z,58.15
2022-07-29T03:06:54.498Z,57.59
2022-07-29T03:09:29.183Z,57.56
2022-07-29T03:12:05.097Z,58.11
2022-07-29T03:14:38.164Z,58.17
2022-07-29T03:17:11.051Z,57.92
2022-07-29T03:19:43.548Z,57.78
2022-07-29T03:22:16.058Z,57.91
2022-07-29T03:24:51.205Z,57.78
2022-07-29T03:27:23.279Z,57.88
2022-07-29T03:29:55.242Z,57.80
2022-07-29T03:32:28.416Z,58.52
2022-07-29T03:35:00.728Z,58.46
2022-07-29T03:37:34.429Z,58.21
2022-07-29T03:40:10.211Z,58.35
2022-07-29T03:42:45.319Z,58.45
2022-07-29T03:45:20.344Z,58.44
2022-07-29T03:48:01.298Z,58.15
2022-07-29T03:50:35.182Z,58.50
2022-07-29T03:53:07.319Z,58.10
2022-07-29T03:55:46.261Z,58.49
2022-07-29T03:58:20.714Z,58.06
2022-07-29T04:00:53.355Z,58.51
2022-07-29T04:03:25.698Z,59.05
2022-07-29T04:06:07.160Z,58.84
2022-07-29T04:08:39.308Z,58.77
2022-07-29T04:11:11.466Z,58.82
2022-07-29T04:13:43.459Z,58.43
2022-07-29T04:16:15.551Z,58.17
2022-07-29T04:18:47.659Z,58.43
2022-07-29T04:21:19.719Z,59.02
2022-07-29T04:23:53.063Z,59.17
2022-07-29T04:26:26.046Z,58.60
2022-07-29T04:28:58.016Z,58.31
2022-07-29T04:31:30.115Z,58.66
2022-07-29T04:34:02.167Z,58.74
2022-07-29T04:36:34.378Z,58.51
2022-07-29T04:39:06.608Z,58.81
2022-07-29T04:41:38.658Z,59.07
2022-07-29T04:44:10.853Z,58.49
2022-07-29T04:46:43.041Z,58.65
2022-07-29T04:49:15.123Z,58.63
2022-07-29T04:51:47.172Z,58.31
2022-07-29T04:54:19.628Z,58.56
2022-07-29T04:56:51.812Z,58.63
2022-07-29T04:59:23.850Z,58.85
2022-07-29T05:01:55.917Z,59.26
2022-07-29T05:04:27.932Z,58.68
2022-07-29T05:06:59.910Z,58.55
2022-07-29T05:09:33.293Z,58.49
2022-07-29T05:12:05.700Z,58.67
2022-07-29T05:14:37.728Z,59.02
2022-07-29T05:17:09.694Z,59.16
2022-07-29T05:19:41.739Z,57.88
2022-07-29T05:22:13.757Z,57.94
2022-07-29T05:24:45.774Z,58.27
2022-07-29T05:27:17.742Z,57.83
2022-07-29T05:29:49.725Z,57.25
2022-07-29T05:32:21.751Z,57.99
2022-07-29T05:34:53.770Z,57.59
2022-07-29T05:37:25.740Z,57.58
2022-07-29T05:39:59.185Z,58.11
2022-07-29T05:42:31.470Z,57.88
2022-07-29T05:45:04.012Z,57.64
2022-07-29T05:47:36.270Z,57.51
2022-07-29T05:50:09.047Z,57.83
2022-07-29T05:52:41.105Z,57.77
2022-07-29T05:55:13.172Z,57.88
2022-07-29T05:57:46.534Z,57.49
2022-07-29T06:00:18.558Z,57.55
2022-07-29T06:02:50.686Z,57.54
2022-07-29T06:05:22.707Z,57.37
2022-07-29T06:07:54.798Z,57.09
2022-07-29T06:10:27.899Z,56.74
2022-07-29T06:13:00.025Z,56.79
2022-07-29T06:15:31.989Z,57.10
2022-07-29T06:18:04.309Z,57.56
2022-07-29T06:20:36.738Z,57.20
2022-07-29T06:23:09.048Z,57.02
2022-07-29T06:25:42.129Z,56.66
2022-07-29T06:28:14.433Z,57.33
2022-07-29T06:30:46.443Z,57.16
2022-07-29T06:33:20.087Z,57.13
2022-07-29T06:35:54.985Z,57.06
2022-07-29T06:38:31.006Z,56.63
2022-07-29T06:41:05.978Z,56.22
2022-07-29T06:43:52.020Z,56.10
2022-07-29T06:46:24.828Z,56.12
2022-07-29T06:48:56.876Z,55.74
2022-07-29T06:51:28.939Z,55.94
2022-07-29T06:54:03.301Z,55.72
2022-07-29T06:56:45.025Z,55.54
2022-07-29T06:59:17.081Z,54.93
2022-07-29T07:01:49.097Z,55.56
2022-07-29T07:04:21.392Z,54.63
2022-07-29T07:06:53.509Z,53.68
2022-07-29T07:09:25.480Z,54.33
2022-07-29T07:12:12.213Z,54.46
2022-07-29T07:14:45.682Z,54.98
2022-07-29T07:17:17.660Z,55.39
2022-07-29T07:19:49.619Z,54.22
2022-07-29T07:22:21.608Z,54.38
2022-07-29T07:24:53.604Z,54.41
2022-07-29T07:27:25.535Z,54.28
2022-07-29T07:29:57.825Z,54.30
2022-07-29T07:32:30.079Z,53.91
2022-07-29T07:35:02.338Z,53.66
2022-07-29T07:37:34.881Z,52.92
2022-07-29T07:40:08.337Z,52.54
2022-07-29T07:42:41.637Z,52.12
2022-07-29T07:45:16.098Z,51.56
2022-07-29T07:47:48.693Z,51.17
2022-07-29T07:50:20.688Z,50.31
2022-07-29T07:52:56.114Z,50.27
2022-07-29T07:55:28.244Z,50.28
2022-07-29T07:58:00.220Z,48.63
2022-07-29T08:00:33.409Z,47.96
2022-07-29T08:03:05.805Z,47.92
2022-07-29T08:05:49.376Z,46.59
2022-07-29T08:08:21.992Z,46.40
2022-07-29T08:10:54.100Z,45.91
2022-07-29T08:13:31.551Z,44.58
2022-07-29T08:16:12.508Z,44.73
2022-07-29T08:18:46.565Z,42.67
2022-07-29T08:21:18.923Z,42.88
2022-07-29T08:23:59.905Z,41.19
2022-07-29T08:26:32.849Z,39.60
2022-07-29T08:29:04.898Z,36.96
2022-07-29T08:31:41.022Z,36.10
2022-07-29T08:34:14.159Z,34.16
2022-07-29T08:36:46.217Z,35.14
2022-07-29T08:39:24.986Z,36.56
2022-07-29T08:41:57.773Z,37.26
2022-07-29T08:44:31.001Z,37.45
2022-07-29T08:47:03.522Z,36.60
2022-07-29T08:49:37.005Z,36.37
2022-07-29T08:52:12.505Z,35.18
2022-07-29T08:54:45.413Z,35.29
2022-07-29T08:57:18.535Z,33.70
2022-07-29T08:59:55.398Z,32.36
2022-07-29T09:02:34.727Z,31.71
2022-07-29T09:05:08.844Z,31.26
2022-07-29T09:07:44.322Z,30.68
2022-07-29T09:10:16.414Z,31.21
2022-07-29T09:12:49.933Z,30.69
2022-07-29T09:15:22.138Z,30.58
2022-07-29T09:17:54.283Z,30.94
2022-07-29T09:20:26.719Z,31.11
2022-07-29T09:23:09.027Z,31.54
2022-07-29T09:25:42.718Z,30.70
2022-07-29T09:28:19.906Z,31.64
2022-07-29T09:30:57.515Z,33.78
2022-07-29T09:33:40.375Z,34.39
2022-07-29T09:36:12.945Z,33.86
2022-07-29T09:39:00.185Z,33.33
2022-07-29T09:41:50.432Z,31.86
2022-07-29T09:44:23.840Z,31.93
2022-07-29T09:47:08.224Z,32.70
2022-07-29T09:49:59.407Z,33.25
2022-07-29T09:52:31.932Z,32.19
2022-07-29T09:55:13.785Z,32.75
2022-07-29T09:57:50.573Z,33.00
2022-07-29T10:00:24.193Z,31.98
2022-07-29T10:03:02.606Z,32.83
2022-07-29T10:05:36.180Z,32.12
2022-07-29T10:08:10.685Z,33.14
2022-07-29T10:10:44.005Z,32.79
2022-07-29T10:13:16.831Z,32.41
2022-07-29T10:15:51.929Z,31.49
2022-07-29T10:18:24.125Z,32.39
2022-07-29T10:20:57.029Z,31.70
2022-07-29T10:23:30.976Z,32.40
2022-07-29T10:26:20.637Z,32.30
2022-07-29T10:28:52.628Z,33.44
2022-07-29T10:31:40.839Z,33.42
2022-07-29T10:34:29.310Z,32.88
2022-07-29T10:37:45.784Z,32.92
2022-07-29T10:40:42.302Z,32.56
2022-07-29T10:43:25.626Z,31.83
2022-07-29T10:46:00.799Z,30.85
2022-07-29T10:48:32.855Z,30.63
2022-07-29T10:51:06.928Z,30.74
2022-07-29T10:56:44.937Z,27.35
2022-07-29T10:59:22.807Z,26.19
2022-07-29T11:02:10.869Z,24.18
2022-07-29T11:04:48.643Z,23.20
2022-07-29T11:07:23.278Z,22.96
2022-07-29T11:10:14.077Z,22.35
2022-07-29T11:12:48.492Z,21.96
2022-07-29T11:15:24.988Z,21.52
2022-07-29T11:18:01.299Z,21.96
2022-07-29T11:20:50.116Z,22.98
2022-07-29T11:23:33.858Z,22.99
2022-07-29T11:29:26.056Z,22.80
2022-07-29T11:32:18.145Z,22.18
2022-07-29T11:35:37.008Z,22.10
2022-07-29T11:38:31.777Z,23.19
2022-07-29T11:41:26.066Z,22.66
2022-07-29T11:44:01.574Z,23.33
2022-07-29T11:46:54.107Z,24.38
2022-07-29T11:49:32.582Z,24.13
2022-07-29T11:52:05.852Z,24.09
2022-07-29T11:54:57.971Z,23.84
2022-07-29T11:57:37.232Z,24.44
2022-07-29T12:00:12.100Z,24.16
2022-07-29T12:02:48.483Z,23.76
2022-07-29T12:05:51.917Z,23.79
2022-07-29T12:08:26.935Z,24.39
2022-07-29T12:10:59.082Z,25.63
2022-07-29T12:13:40.089Z,25.95
2022-07-29T12:16:14.702Z,25.95
2022-07-29T12:19:00.624Z,26.48
2022-07-29T12:21:56.869Z,26.56
2022-07-29T12:24:45.434Z,27.11
2022-07-29T12:27:19.365Z,27.27
2022-07-29T12:30:07.434Z,25.72
2022-07-29T12:32:48.374Z,26.79
2022-07-29T12:35:22.304Z,26.47
2022-07-29T12:37:55.852Z,26.62
2022-07-29T12:40:27.995Z,27.41
2022-07-29T12:43:12.992Z,27.37
2022-07-29T12:45:49.627Z,27.65
2022-07-29T12:48:38.995Z,28.31
2022-07-29T12:51:15.403Z,28.20
2022-07-29T12:54:24.162Z,27.81
2022-07-29T12:57:01.179Z,27.56
2022-07-29T12:59:33.457Z,28.52
2022-07-29T13:02:06.093Z,27.84
2022-07-29T13:04:38.137Z,28.09
2022-07-29T13:07:10.474Z,27.71
2022-07-29T13:09:45.457Z,27.79
2022-07-29T13:12:17.447Z,28.19
2022-07-29T13:14:51.233Z,27.97
2022-07-29T13:17:24.384Z,28.69
2022-07-29T13:20:13.632Z,27.41
2022-07-29T13:22:49.339Z,28.07
2022-07-29T13:25:33.220Z,28.99
2022-07-29T13:28:05.688Z,29.11
2022-07-29T13:30:38.779Z,29.13
2022-07-29T13:33:16.756Z,29.59
2022-07-29T13:35:48.979Z,29.72
2022-07-29T13:38:21.004Z,29.45
2022-07-29T13:40:53.129Z,29.39
2022-07-29T13:43:25.355Z,29.79
2022-07-29T13:45:57.501Z,30.27
2022-07-29T13:48:29.475Z,29.23
2022-07-29T13:51:01.953Z,29.23
2022-07-29T13:53:34.053Z,29.06
2022-07-29T13:56:07.052Z,28.92
2022-07-29T13:58:39.143Z,29.60
2022-07-29T14:01:12.239Z,29.81
2022-07-29T14:03:45.764Z,30.37
2022-07-29T14:06:18.284Z,30.66
2022-07-29T14:08:54.367Z,30.71
2022-07-29T14:11:26.435Z,30.49
2022-07-29T14:13:58.465Z,29.05
2022-07-29T14:16:30.524Z,29.05
2022-07-29T14:19:02.914Z,29.96
2022-07-29T14:21:35.718Z,29.12
2022-07-29T14:24:17.931Z,29.25
2022-07-29T14:26:54.984Z,28.72
2022-07-29T14:29:37.455Z,30.04
2022-07-29T14:32:12.553Z,29.96
2022-07-29T14:34:44.628Z,30.74
2022-07-29T14:37:16.813Z,29.69
2022-07-29T14:39:48.781Z,31.02
2022-07-29T14:42:20.848Z,30.61
2022-07-29T14:44:52.826Z,30.79
2022-07-29T14:47:25.153Z,31.24
2022-07-29T14:49:57.206Z,31.22
2022-07-29T14:52:29.213Z,30.43
2022-07-29T14:55:01.273Z,30.83
2022-07-29T14:57:33.306Z,31.15
2022-07-29T15:00:10.021Z,30.60
2022-07-29T15:03:00.860Z,30.42
2022-07-29T15:05:33.719Z,30.17
2022-07-29T15:08:05.806Z,30.46
2022-07-29T15:10:37.875Z,31.37
2022-07-29T15:13:09.859Z,31.14
2022-07-29T15:15:42.373Z,31.54
2022-07-29T15:18:14.413Z,31.73
2022-07-29T15:20:47.429Z,31.42
2022-07-29T15:23:19.500Z,32.41
2022-07-29T15:25:51.454Z,31.41
2022-07-29T15:28:23.512Z,31.67
2022-07-29T15:30:55.626Z,32.41
2022-07-29T15:33:28.948Z,32.19
2022-07-29T15:36:00.905Z,32.75
2022-07-29T15:38:32.860Z,32.70
2022-07-29T15:41:04.960Z,32.54
2022-07-29T15:43:36.947Z,32.60
2022-07-29T15:46:27.368Z,33.20
2022-07-29T15:48:59.608Z,33.39
2022-07-29T15:51:33.458Z,33.54
2022-07-29T15:54:06.304Z,33.81
2022-07-29T15:56:38.814Z,33.96
2022-07-29T15:59:10.785Z,33.75
2022-07-29T16:01:54.798Z,34.85
2022-07-29T16:04:27.758Z,34.72
2022-07-29T16:07:00.206Z,35.22
2022-07-29T16:09:32.590Z,35.78
2022-07-29T16:12:14.985Z,35.46
2022-07-29T16:14:49.622Z,35.56
2022-07-29T16:17:21.725Z,35.69
2022-07-29T16:19:54.445Z,35.45
2022-07-29T16:22:26.446Z,36.40
2022-07-29T16:24:58.448Z,36.86
2022-07-29T16:27:34.297Z,36.50
2022-07-29T16:30:10.495Z,37.38
2022-07-29T16:32:42.452Z,37.88
2022-07-29T16:35:14.568Z,37.78
2022-07-29T16:37:46.536Z,38.12
2022-07-29T16:40:18.576Z,38.58
2022-07-29T16:42:50.746Z,38.55
2022-07-29T16:45:22.825Z,39.08
2022-07-29T16:48:00.188Z,39.04
2022-07-29T16:50:33.404Z,39.55
2022-07-29T16:53:05.355Z,39.51
2022-07-29T16:55:37.536Z,41.08
2022-07-29T16:58:10.143Z,42.51
2022-07-29T17:00:42.219Z,46.46
2022-07-29T17:03:14.208Z,46.98
2022-07-29T17:05:52.714Z,51.45
2022-07-29T17:08:26.151Z,51.35
2022-07-29T17:10:58.127Z,53.80
2022-07-29T17:13:30.076Z,53.77
2022-07-29T17:16:02.187Z,53.65
2022-07-29T17:18:34.167Z,55.21
2022-07-29T17:21:06.261Z,57.10
2022-07-29T17:23:38.207Z,59.84
2022-07-29T17:26:10.262Z,59.49
2022-07-29T17:28:42.669Z,58.95
2022-07-29T17:31:15.164Z,59.46
2022-07-29T17:33:47.233Z,60.20
2022-07-29T17:36:25.102Z,61.12
2022-07-29T17:39:08.593Z,60.54
2022-07-29T17:41:41.131Z,60.61
2022-07-29T17:44:13.630Z,61.23
2022-07-29T17:46:45.679Z,60.94
2022-07-29T17:49:17.748Z,61.60
2022-07-29T17:51:50.222Z,62.48
2022-07-29T17:54:22.277Z,61.63
2022-07-29T17:56:58.946Z,62.21
2022-07-29T17:59:31.159Z,60.10
2022-07-29T18:02:03.221Z,60.40
2022-07-29T18:04:35.234Z,59.06
2022-07-29T18:07:07.332Z,59.59
2022-07-29T18:09:42.688Z,59.75
2022-07-29T18:12:14.643Z,60.05
2022-07-29T18:14:46.730Z,57.52
2022-07-29T18:17:18.752Z,57.97
2022-07-29T18:19:51.527Z,57.95
2022-07-29T18:22:23.626Z,58.81
2022-07-29T18:24:55.605Z,58.56
2022-07-29T18:27:27.681Z,57.40
2022-07-29T18:29:59.684Z,58.48
2022-07-29T18:32:37.042Z,57.69
2022-07-29T18:35:09.604Z,57.05
2022-07-29T18:38:01.866Z,58.61
2022-07-29T18:40:33.621Z,57.75
2022-07-29T18:43:06.947Z,58.84
2022-07-29T18:45:39.564Z,58.23
2022-07-29T18:48:12.633Z,58.87
2022-07-29T18:50:45.327Z,58.93
2022-07-29T18:53:17.543Z,58.93
2022-07-29T18:55:49.502Z,58.00
2022-07-29T18:58:21.737Z,58.10
2022-07-29T19:00:53.816Z,58.95
2022-07-29T19:03:25.864Z,58.50
2022-07-29T19:05:57.853Z,59.26
2022-07-29T19:08:29.815Z,58.51
2022-07-29T19:11:01.763Z,60.28
2022-07-29T19:13:36.936Z,62.66
2022-07-29T19:16:12.074Z,62.82
2022-07-29T19:18:44.797Z,63.35
2022-07-29T19:21:17.387Z,62.56
2022-07-29T19:24:00.393Z,62.75
2022-07-29T19:26:46.504Z,61.45
2022-07-29T19:29:18.816Z,60.78
2022-07-29T19:31:51.049Z,60.27
2022-07-29T19:34:23.084Z,60.41
2022-07-29T19:36:55.066Z,59.70
2022-07-29T19:39:34.950Z,59.40
2022-07-29T19:42:08.499Z,59.96
2022-07-29T19:44:40.510Z,60.18
2022-07-29T19:47:12.477Z,59.67
2022-07-29T19:49:49.452Z,58.55
2022-07-29T19:52:21.520Z,59.49
2022-07-29T19:54:53.703Z,58.70
2022-07-29T19:57:25.677Z,58.46
2022-07-29T19:59:58.380Z,59.45
2022-07-29T20:02:30.410Z,59.09
2022-07-29T20:05:02.762Z,58.50
2022-07-29T20:07:34.728Z,58.32
2022-07-29T20:10:09.267Z,57.99
2022-07-29T20:12:42.740Z,57.95
2022-07-29T20:15:16.586Z,57.83
2022-07-29T20:17:48.696Z,57.85
2022-07-29T20:20:22.356Z,58.70
2022-07-29T20:22:54.781Z,58.33
2022-07-29T20:25:26.810Z,58.95
2022-07-29T20:27:58.765Z,58.56
2022-07-29T20:30:30.768Z,59.04
2022-07-29T20:33:02.986Z,58.99
2022-07-29T20:35:35.427Z,59.42
2022-07-29T20:38:07.413Z,58.71
2022-07-29T20:40:39.590Z,58.98
2022-07-29T20:43:11.757Z,59.09
2022-07-29T20:45:43.766Z,59.89
2022-07-29T20:48:15.719Z,59.66
2022-07-29T20:50:48.910Z,59.49
2022-07-29T20:53:21.067Z,59.45
2022-07-29T20:55:53.028Z,58.79
2022-07-29T20:58:25.010Z,59.94
2022-07-29T21:00:56.981Z,59.28
2022-07-29T21:03:28.995Z,59.13
2022-07-29T21:06:01.024Z,59.82
2022-07-29T21:08:33.094Z,60.06
2022-07-29T21:11:05.651Z,59.81
2022-07-29T21:13:41.094Z,59.93
2022-07-29T21:16:14.805Z,60.30
2022-07-29T21:18:47.797Z,59.69
2022-07-29T21:21:19.943Z,60.32
2022-07-29T21:23:52.682Z,60.35
2022-07-29T21:26:24.706Z,59.59
2022-07-29T21:28:56.659Z,59.72
2022-07-29T21:31:28.749Z,60.10
2022-07-29T21:34:00.686Z,59.11
2022-07-29T21:36:48.947Z,59.73
2022-07-29T21:39:21.061Z,59.20
2022-07-29T21:41:53.089Z,59.94
2022-07-29T21:44:25.059Z,59.43
2022-07-29T21:46:57.272Z,59.30
2022-07-29T21:49:29.536Z,59.41
2022-07-29T21:52:01.721Z,59.42
2022-07-29T21:54:33.765Z,59.55
2022-07-29T21:57:06.037Z,59.88
2022-07-29T21:59:38.258Z,59.97
2022-07-29T22:02:10.257Z,59.94
2022-07-29T22:04:42.247Z,60.04
2022-07-29T22:07:14.347Z,59.88
2022-07-29T22:09:46.329Z,59.88
2022-07-29T22:12:18.304Z,60.02
2022-07-29T22:14:50.260Z,60.24
2022-07-29T22:17:23.466Z,60.47
2022-07-29T22:19:55.580Z,60.45
2022-07-29T22:22:27.900Z,60.93
2022-07-29T22:24:59.849Z,60.94
2022-07-29T22:27:31.867Z,60.60
2022-07-29T22:30:06.980Z,61.16
2022-07-29T22:32:39.041Z,61.21
2022-07-29T22:35:11.661Z,61.21
2022-07-29T22:37:43.677Z,61.43
2022-07-29T22:40:15.687Z,61.02
2022-07-29T22:42:47.762Z,61.89
2022-07-29T22:45:19.900Z,62.11
2022-07-29T22:47:57.490Z,61.92
2022-07-29T22:50:31.480Z,62.19
2022-07-29T22:53:03.505Z,62.21
2022-07-29T22:55:35.449Z,62.07
2022-07-29T22:58:07.434Z,62.67
2022-07-29T23:00:39.451Z,62.77
2022-07-29T23:03:11.410Z,63.05
2022-07-29T23:05:43.375Z,62.98
2022-07-29T23:08:15.372Z,63.18
2022-07-29T23:10:47.502Z,63.17
2022-07-29T23:13:19.495Z,63.53
2022-07-29T23:15:51.455Z,63.55
2022-07-29T23:18:23.487Z,63.72
2022-07-29T23:20:55.546Z,63.60
2022-07-29T23:23:28.465Z,63.42
2022-07-29T23:26:04.613Z,63.06
2022-07-29T23:28:36.627Z,63.91
2022-07-29T23:31:08.656Z,63.97
2022-07-29T23:33:43.517Z,64.01
2022-07-29T23:36:15.553Z,63.76
2022-07-29T23:38:48.384Z,63.91
2022-07-29T23:41:21.531Z,63.85
2022-07-29T23:43:53.543Z,64.61
2022-07-29T23:46:25.543Z,64.30
2022-07-29T23:48:57.570Z,64.35
2022-07-29T23:51:30.402Z,64.74
2022-07-29T23:54:02.415Z,64.57
2022-07-29T23:56:34.423Z,64.49
2022-07-29T23:59:06.485Z,64.91
